Aérodrome :
LOGIN :

S'inscrire | Disclaimer

   EN    FR    IT 

 










Légende :    VFR   VFR Marginal   IFR   IFR Intensif   IFR Très Intensif
Visi : 
Plafond : 
>= 8 km
>= 3000ft
5 à 8 km
1000 à 3000 ft
1500m à 5 km
500 à 1000 ft
800 à 1500m
200 à 500 ft
< 800m
< 200 ft
Symboles :   Orages  Brouillard  Fortes neiges  Fortes précipitations  Vent > 20 kt
SIGMETs :   Divers  Orages  Givrage  Turbulence  Onde Orograph.  Cendres Volcan.







- Altitude de l'aérodrome : 44 ft
- Code IATA : SOU
- Voir les cartes d'approche


EGHI - Southampton

DERNIER METAR :
  • 211050Z 12008KT 060V160 CAVOK 21/11 Q1011

METARs EXPIRÉS :
  • 211020Z 09008KT 060V140 CAVOK 21/11 Q1011
  • 210950Z 10008KT 050V150 CAVOK 20/10 Q1012
  • 210920Z 10009KT 060V130 CAVOK 19/11 Q1012
  • 210850Z 11008KT 040V180 CAVOK 18/10 Q1012
  • 210820Z 11005KT 050V170 CAVOK 17/10 Q1013

TAF TAF EGHI
Valide du 21 à 09h jusqu'au 21 à 18h UTC


210800Z 2109/2118 12008KT 9999 FEW045
ATIS : +44 23 8062 7103
Pas de NOTAMs connus pour ce terrain.



MET'MAP, la Météo Aéronautique d'un coup d'oeil ! - Copyright ORBIFLY Décembre 2007 - Disclaimer

ORBIFLY MET'MAP TEAM :

Programmation & Développement : Alexandra Zaïnal
Conception & Développement : Baudouin d'Aumeries
Co-Programmation & Développement : Marc-Olivier Méhu
Soutien technique & logistique : Manuel Goepfert

Contact : metmap@orbifly.com




SOURCES & CREDITS :

   NOAA